createdAt,value
2022-08-30T00:00:41.143Z,2.10
2022-08-30T00:03:11.196Z,2.33
2022-08-30T00:05:39.893Z,2.23
2022-08-30T00:08:08.118Z,2.20
2022-08-30T00:10:38.208Z,2.40
2022-08-30T00:13:07.784Z,2.10
2022-08-30T00:15:36.195Z,2.40
2022-08-30T00:18:04.169Z,2.30
2022-08-30T00:20:34.439Z,2.27
2022-08-30T00:23:03.230Z,2.50
2022-08-30T00:25:31.372Z,2.20
2022-08-30T00:28:00.699Z,1.93
2022-08-30T00:30:28.561Z,2.00
2022-08-30T00:32:56.454Z,2.23
2022-08-30T00:35:25.139Z,2.13
2022-08-30T00:37:53.079Z,2.40
2022-08-30T00:40:27.263Z,2.07
2022-08-30T00:42:59.303Z,2.37
2022-08-30T00:45:33.172Z,2.10
2022-08-30T00:48:01.973Z,2.10
2022-08-30T00:50:35.023Z,2.47
2022-08-30T00:53:06.794Z,2.70
2022-08-30T00:55:34.942Z,2.67
2022-08-30T00:58:09.889Z,2.43
2022-08-30T01:00:39.391Z,2.30
2022-08-30T01:03:09.285Z,2.17
2022-08-30T01:05:39.694Z,2.30
2022-08-30T01:08:07.730Z,2.10
2022-08-30T01:10:37.789Z,2.37
2022-08-30T01:13:06.392Z,2.13
2022-08-30T01:15:34.781Z,2.47
2022-08-30T01:18:06.887Z,2.20
2022-08-30T01:20:44.792Z,2.23
2022-08-30T01:23:16.847Z,2.50
2022-08-30T01:25:48.413Z,2.40
2022-08-30T01:28:20.957Z,2.53
2022-08-30T01:30:49.457Z,2.20
2022-08-30T01:33:20.053Z,2.30
2022-08-30T01:35:52.854Z,2.30
2022-08-30T01:38:25.810Z,2.50
2022-08-30T01:40:59.511Z,2.20
2022-08-30T01:43:28.931Z,2.00
2022-08-30T01:45:56.992Z,2.70
2022-08-30T01:48:30.865Z,2.87
2022-08-30T01:50:59.997Z,2.40
2022-08-30T01:53:29.681Z,2.03
2022-08-30T01:55:57.557Z,2.60
2022-08-30T01:58:25.766Z,2.10
2022-08-30T02:00:54.752Z,2.10
2022-08-30T02:03:23.029Z,2.17
2022-08-30T02:05:51.095Z,2.40
2022-08-30T02:08:18.995Z,2.30
2022-08-30T02:10:48.240Z,2.30
2022-08-30T02:13:16.219Z,2.43
2022-08-30T02:15:44.271Z,2.40
2022-08-30T02:18:12.199Z,2.60
2022-08-30T02:20:41.062Z,2.40
2022-08-30T02:23:09.179Z,2.60
2022-08-30T02:25:37.025Z,1.90
2022-08-30T02:28:07.276Z,2.43
2022-08-30T02:30:36.769Z,2.30
2022-08-30T02:33:05.383Z,2.20
2022-08-30T02:35:33.430Z,2.43
2022-08-30T02:38:01.402Z,2.67
2022-08-30T02:40:29.433Z,2.63
2022-08-30T02:42:57.545Z,2.20
2022-08-30T02:45:27.873Z,2.20
2022-08-30T02:47:56.592Z,2.50
2022-08-30T02:50:25.302Z,2.50
2022-08-30T02:52:53.389Z,2.67
2022-08-30T02:55:23.924Z,2.37
2022-08-30T02:57:51.823Z,2.30
2022-08-30T03:00:21.742Z,2.40
2022-08-30T03:02:51.041Z,2.83
2022-08-30T03:05:19.050Z,2.60
2022-08-30T03:07:47.589Z,2.67
2022-08-30T03:10:16.410Z,2.40
2022-08-30T03:12:44.692Z,2.10
2022-08-30T03:15:14.186Z,2.33
2022-08-30T03:17:42.643Z,2.67
2022-08-30T03:20:13.995Z,2.30
2022-08-30T03:22:42.162Z,2.47
2022-08-30T03:25:10.459Z,2.20
2022-08-30T03:27:38.682Z,2.17
2022-08-30T03:30:08.207Z,2.60
2022-08-30T03:32:36.860Z,2.37
2022-08-30T03:35:05.653Z,2.17
2022-08-30T03:37:35.686Z,2.30
2022-08-30T03:40:04.449Z,2.40
2022-08-30T03:42:34.732Z,2.37
2022-08-30T03:45:03.396Z,2.47
2022-08-30T03:47:32.039Z,2.53
2022-08-30T03:49:59.995Z,2.50
2022-08-30T03:52:28.260Z,2.40
2022-08-30T03:54:57.606Z,2.80
2022-08-30T03:57:25.709Z,2.63
2022-08-30T03:59:53.791Z,2.70
2022-08-30T04:02:21.972Z,2.40
2022-08-30T04:04:50.111Z,2.70
2022-08-30T04:07:19.187Z,2.70
2022-08-30T04:09:47.268Z,3.00
2022-08-30T04:12:18.398Z,3.00
2022-08-30T04:14:50.918Z,3.20
2022-08-30T04:17:18.954Z,2.70
2022-08-30T04:19:46.926Z,2.90
2022-08-30T04:22:14.932Z,3.00
2022-08-30T04:24:42.935Z,2.53
2022-08-30T04:27:11.932Z,2.60
2022-08-30T04:29:41.599Z,2.90
2022-08-30T04:32:09.976Z,2.53
2022-08-30T04:34:39.414Z,2.77
2022-08-30T04:37:13.666Z,2.70
2022-08-30T04:39:47.556Z,2.87
2022-08-30T04:42:23.139Z,2.70
2022-08-30T04:45:06.733Z,2.83
2022-08-30T04:47:39.892Z,2.50
2022-08-30T04:50:18.170Z,2.30
2022-08-30T04:52:48.314Z,3.00
2022-08-30T04:55:20.176Z,2.70
2022-08-30T04:57:50.396Z,2.67
2022-08-30T05:00:22.519Z,2.93
2022-08-30T05:02:52.193Z,2.80
2022-08-30T05:05:48.840Z,2.67
2022-08-30T05:08:24.482Z,2.80
2022-08-30T05:10:54.410Z,2.70
2022-08-30T05:13:35.149Z,2.63
2022-08-30T05:16:08.338Z,2.30
2022-08-30T05:18:44.202Z,2.47
2022-08-30T05:21:16.667Z,2.67
2022-08-30T05:23:46.203Z,2.97
2022-08-30T05:26:21.482Z,2.83
2022-08-30T05:28:50.047Z,2.83
2022-08-30T05:31:21.529Z,2.50
2022-08-30T05:33:51.977Z,2.83
2022-08-30T05:36:22.653Z,2.70
2022-08-30T05:38:51.120Z,2.80
2022-08-30T05:41:20.497Z,2.73
2022-08-30T05:43:49.188Z,2.80
2022-08-30T05:46:22.034Z,3.17
2022-08-30T05:48:50.875Z,3.13
2022-08-30T05:51:21.027Z,2.73
2022-08-30T05:53:51.329Z,2.80
2022-08-30T05:56:25.218Z,2.73
2022-08-30T05:58:55.390Z,2.50
2022-08-30T06:01:29.465Z,2.93
2022-08-30T06:04:03.936Z,2.70
2022-08-30T06:06:35.706Z,2.60
2022-08-30T06:09:06.054Z,2.60
2022-08-30T06:11:35.333Z,2.80
2022-08-30T06:14:04.254Z,2.80
2022-08-30T06:16:35.618Z,2.97
2022-08-30T06:19:03.533Z,2.50
2022-08-30T06:21:34.483Z,4.23
2022-08-30T06:24:04.791Z,2.60
2022-08-30T06:26:33.694Z,2.97
2022-08-30T06:29:01.665Z,3.53
2022-08-30T06:31:29.665Z,4.30
2022-08-30T06:33:59.031Z,2.40
2022-08-30T06:36:27.368Z,3.90
2022-08-30T06:38:57.591Z,4.47
2022-08-30T06:41:27.765Z,3.37
2022-08-30T06:43:56.615Z,3.50
2022-08-30T06:46:27.330Z,2.97
2022-08-30T06:48:56.744Z,2.80
2022-08-30T06:51:28.343Z,4.17
2022-08-30T06:53:58.016Z,2.80
2022-08-30T06:56:27.634Z,3.13
2022-08-30T06:58:55.909Z,3.43
2022-08-30T07:01:26.057Z,4.40
2022-08-30T07:03:55.451Z,4.03
2022-08-30T07:06:26.253Z,3.00
2022-08-30T07:08:56.086Z,3.20
2022-08-30T07:11:35.649Z,3.00
2022-08-30T07:14:07.765Z,2.97
2022-08-30T07:16:36.193Z,3.40
2022-08-30T07:19:04.762Z,2.80
2022-08-30T07:21:37.271Z,2.50
2022-08-30T07:24:08.873Z,3.57
2022-08-30T07:26:39.554Z,2.67
2022-08-30T07:29:07.879Z,2.90
2022-08-30T07:31:36.172Z,2.80
2022-08-30T07:34:04.465Z,2.40
2022-08-30T07:36:34.195Z,2.80
2022-08-30T07:39:02.066Z,2.80
2022-08-30T07:41:34.166Z,2.40
2022-08-30T07:44:03.075Z,2.70
2022-08-30T07:46:31.035Z,2.90
2022-08-30T07:49:01.843Z,6.03
2022-08-30T07:51:32.842Z,2.63
2022-08-30T07:54:02.331Z,2.50
2022-08-30T07:56:30.794Z,2.27
2022-08-30T07:58:58.800Z,2.80
2022-08-30T08:01:26.761Z,3.93
2022-08-30T08:03:54.695Z,2.77
2022-08-30T08:06:24.257Z,2.77
2022-08-30T08:08:54.375Z,2.97
2022-08-30T08:11:28.455Z,2.60
2022-08-30T08:13:59.801Z,2.30
2022-08-30T08:16:31.125Z,2.67
2022-08-30T08:18:59.291Z,2.60
2022-08-30T08:21:28.077Z,2.77
2022-08-30T08:23:56.544Z,2.47
2022-08-30T08:26:25.827Z,2.30
2022-08-30T08:28:53.819Z,2.00
2022-08-30T08:31:27.104Z,2.70
2022-08-30T08:33:58.699Z,2.60
2022-08-30T08:36:27.121Z,2.93
2022-08-30T08:38:55.338Z,2.40
2022-08-30T08:41:37.930Z,2.80
2022-08-30T08:44:09.713Z,3.00
2022-08-30T08:46:45.610Z,2.97
2022-08-30T08:49:14.121Z,2.60
2022-08-30T08:51:59.827Z,3.67
2022-08-30T08:54:34.262Z,2.73
2022-08-30T08:57:03.711Z,4.33
2022-08-30T08:59:31.995Z,2.80
2022-08-30T09:02:03.173Z,2.60
2022-08-30T09:04:35.405Z,2.63
2022-08-30T09:07:06.646Z,2.30
2022-08-30T09:09:37.336Z,2.80
2022-08-30T09:12:08.334Z,2.67
2022-08-30T09:14:44.289Z,2.27
2022-08-30T09:17:15.335Z,2.53
2022-08-30T09:19:46.101Z,2.87
2022-08-30T09:22:26.320Z,2.20
2022-08-30T09:24:56.682Z,2.37
2022-08-30T09:27:30.253Z,3.00
2022-08-30T09:30:01.995Z,2.20
2022-08-30T09:32:33.841Z,2.93
2022-08-30T09:35:01.729Z,3.27
2022-08-30T09:37:46.775Z,2.73
2022-08-30T09:40:23.255Z,3.33
2022-08-30T09:43:08.395Z,2.47
2022-08-30T09:45:39.683Z,2.50
2022-08-30T09:48:32.939Z,2.40
2022-08-30T09:51:21.607Z,2.67
2022-08-30T09:54:17.038Z,2.50
2022-08-30T09:56:55.122Z,2.50
2022-08-30T09:59:37.908Z,2.40
2022-08-30T10:02:22.471Z,2.60
2022-08-30T10:05:00.834Z,2.13
2022-08-30T10:07:34.760Z,2.80
2022-08-30T10:10:12.112Z,2.90
2022-08-30T10:12:50.615Z,2.40
2022-08-30T10:15:25.511Z,2.60
2022-08-30T10:18:02.686Z,3.38
2022-08-30T10:20:34.587Z,2.53
2022-08-30T10:23:09.308Z,2.47
2022-08-30T10:25:41.456Z,2.40
2022-08-30T10:28:15.710Z,2.40
2022-08-30T10:30:49.147Z,2.40
2022-08-30T10:33:25.435Z,2.30
2022-08-30T10:35:57.864Z,2.38
2022-08-30T10:38:30.478Z,2.30
2022-08-30T10:41:17.233Z,2.30
2022-08-30T10:43:54.088Z,2.08
2022-08-30T10:46:30.862Z,2.10
2022-08-30T10:49:02.177Z,1.92
2022-08-30T10:51:36.975Z,2.00
2022-08-30T10:54:11.093Z,2.13
2022-08-30T10:56:41.946Z,2.10
2022-08-30T10:59:11.955Z,2.17
2022-08-30T11:02:17.708Z,2.00
2022-08-30T11:05:13.570Z,2.30
2022-08-30T11:07:52.138Z,2.20
2022-08-30T11:10:34.952Z,2.00
2022-08-30T11:13:06.444Z,2.20
2022-08-30T11:15:37.687Z,2.28
2022-08-30T11:18:13.969Z,2.40
2022-08-30T11:20:46.909Z,2.17
2022-08-30T11:23:25.320Z,2.17
2022-08-30T11:25:57.514Z,2.17
2022-08-30T11:29:01.203Z,2.10
2022-08-30T11:31:35.128Z,2.33
2022-08-30T11:34:05.061Z,2.28
2022-08-30T11:37:09.747Z,2.38
2022-08-30T11:39:54.844Z,2.63
2022-08-30T11:42:42.149Z,2.10
2022-08-30T11:45:45.668Z,2.50
2022-08-30T11:48:47.045Z,2.30
2022-08-30T11:52:23.808Z,2.40
2022-08-30T11:54:54.524Z,3.35
2022-08-30T11:57:28.927Z,2.33
2022-08-30T12:00:06.780Z,2.10
2022-08-30T12:02:48.869Z,2.10
2022-08-30T12:05:49.377Z,2.10
2022-08-30T12:09:02.658Z,2.40
2022-08-30T12:12:03.100Z,2.40
2022-08-30T12:14:44.587Z,3.17
2022-08-30T12:17:36.667Z,2.53
2022-08-30T12:20:06.951Z,2.42
2022-08-30T12:22:37.757Z,1.90
2022-08-30T12:25:18.333Z,2.97
2022-08-30T12:27:47.845Z,2.40
2022-08-30T12:30:15.990Z,2.15
2022-08-30T12:32:47.582Z,3.08
2022-08-30T12:35:22.512Z,2.30
2022-08-30T12:37:59.033Z,3.05
2022-08-30T12:40:27.328Z,2.35
2022-08-30T12:42:58.738Z,3.50
2022-08-30T12:45:30.125Z,2.22
2022-08-30T12:48:00.509Z,2.30
2022-08-30T12:50:31.610Z,2.13
2022-08-30T12:53:02.880Z,2.60
2022-08-30T12:55:34.350Z,2.47
2022-08-30T12:58:07.405Z,2.38
2022-08-30T13:00:37.758Z,2.08
2022-08-30T13:03:16.301Z,2.17
2022-08-30T13:05:52.824Z,2.03
2022-08-30T13:08:25.309Z,2.13
2022-08-30T13:10:58.110Z,2.35
2022-08-30T13:13:38.529Z,2.10
2022-08-30T13:16:13.055Z,2.42
2022-08-30T13:18:41.395Z,2.55
2022-08-30T13:21:22.857Z,2.17
2022-08-30T13:23:58.161Z,2.47
2022-08-30T13:26:27.487Z,2.33
2022-08-30T13:28:58.974Z,1.90
2022-08-30T13:31:29.292Z,2.00
2022-08-30T13:34:02.141Z,2.30
2022-08-30T13:36:32.263Z,2.35
2022-08-30T13:39:01.809Z,2.10
2022-08-30T13:41:34.131Z,2.20
2022-08-30T13:44:13.553Z,2.10
2022-08-30T13:46:51.024Z,2.10
2022-08-30T13:52:20.949Z,2.17
2022-08-30T13:54:50.297Z,2.10
2022-08-30T14:00:17.275Z,2.05
2022-08-30T14:02:50.370Z,2.33
2022-08-30T14:11:02.205Z,2.30
2022-08-30T14:13:30.798Z,2.20
2022-08-30T14:18:50.567Z,2.58
2022-08-30T14:21:21.519Z,2.13
2022-08-30T14:23:53.276Z,2.20
2022-08-30T14:26:22.961Z,2.10
2022-08-30T14:28:52.289Z,2.15
2022-08-30T14:31:22.029Z,2.28
2022-08-30T14:33:50.104Z,2.38
2022-08-30T14:36:18.565Z,2.10
2022-08-30T14:38:46.697Z,2.28
2022-08-30T14:41:16.536Z,1.73
2022-08-30T14:43:44.837Z,1.70
2022-08-30T14:46:12.905Z,1.85
2022-08-30T14:48:43.038Z,1.90
2022-08-30T14:51:16.699Z,2.42
2022-08-30T14:53:44.974Z,2.00
2022-08-30T14:56:19.499Z,1.95
2022-08-30T14:58:49.547Z,1.85
2022-08-30T15:01:17.567Z,2.03
2022-08-30T15:03:47.396Z,1.88
2022-08-30T15:06:15.984Z,1.80
2022-08-30T15:08:47.754Z,2.10
2022-08-30T15:11:20.167Z,2.13
2022-08-30T15:13:48.572Z,1.95
2022-08-30T15:16:19.755Z,2.03
2022-08-30T15:18:50.124Z,2.03
2022-08-30T15:21:24.876Z,1.85
2022-08-30T15:23:53.805Z,2.00
2022-08-30T15:26:22.198Z,1.90
2022-08-30T15:28:51.837Z,2.13
2022-08-30T15:31:20.806Z,2.20
2022-08-30T15:33:52.416Z,2.28
2022-08-30T15:36:20.863Z,2.28
2022-08-30T15:38:48.893Z,2.20
2022-08-30T15:41:17.020Z,2.30
2022-08-30T15:43:44.943Z,2.40
2022-08-30T15:46:19.303Z,2.35
2022-08-30T15:48:47.810Z,2.42
2022-08-30T15:51:17.841Z,2.30
2022-08-30T15:53:46.865Z,2.35
2022-08-30T15:56:15.310Z,1.92
2022-08-30T15:58:53.268Z,2.08
2022-08-30T16:01:30.223Z,2.30
2022-08-30T16:03:58.915Z,2.25
2022-08-30T16:06:30.706Z,2.78
2022-08-30T16:08:59.485Z,2.83
2022-08-30T16:11:27.839Z,2.30
2022-08-30T16:13:58.912Z,2.00
2022-08-30T16:16:27.478Z,2.85
2022-08-30T16:18:55.969Z,2.38
2022-08-30T16:21:26.251Z,2.45
2022-08-30T16:23:58.157Z,2.55
2022-08-30T16:26:27.263Z,2.55
2022-08-30T16:28:56.089Z,2.10
2022-08-30T16:31:26.046Z,2.30
2022-08-30T16:33:55.524Z,2.47
2022-08-30T16:36:30.646Z,2.47
2022-08-30T16:39:00.859Z,2.60
2022-08-30T16:41:29.204Z,2.50
2022-08-30T16:44:00.554Z,2.58
2022-08-30T16:46:28.566Z,2.33
2022-08-30T16:48:58.307Z,2.20
2022-08-30T16:51:28.020Z,2.53
2022-08-30T16:53:56.950Z,2.22
2022-08-30T16:56:28.057Z,2.20
2022-08-30T16:59:01.825Z,2.40
2022-08-30T17:01:32.040Z,2.70
2022-08-30T17:04:00.861Z,2.78
2022-08-30T17:06:28.956Z,2.92
2022-08-30T17:08:57.151Z,2.10
2022-08-30T17:11:27.063Z,2.28
2022-08-30T17:13:55.150Z,2.28
2022-08-30T17:16:28.056Z,2.30
2022-08-30T17:18:59.477Z,2.40
2022-08-30T17:21:29.275Z,2.60
2022-08-30T17:24:01.743Z,2.30
2022-08-30T17:26:32.996Z,2.45
2022-08-30T17:29:01.335Z,2.60
2022-08-30T17:31:30.898Z,2.30
2022-08-30T17:34:03.232Z,2.58
2022-08-30T17:36:31.946Z,2.55
2022-08-30T17:39:00.015Z,2.38
2022-08-30T17:41:28.797Z,2.38
2022-08-30T17:43:58.102Z,2.30
2022-08-30T17:46:26.140Z,2.55
2022-08-30T17:49:01.027Z,2.70
2022-08-30T17:51:30.049Z,2.80
2022-08-30T17:53:58.479Z,2.63
2022-08-30T17:56:30.398Z,2.70
2022-08-30T17:59:07.921Z,2.53
2022-08-30T18:01:37.804Z,2.40
2022-08-30T18:04:06.616Z,2.40
2022-08-30T18:06:35.168Z,2.95
2022-08-30T18:09:03.206Z,3.25
2022-08-30T18:11:31.153Z,2.55
2022-08-30T18:13:59.047Z,2.60
2022-08-30T18:16:28.435Z,2.65
2022-08-30T18:18:57.182Z,2.67
2022-08-30T18:21:25.923Z,2.93
2022-08-30T18:23:56.542Z,3.40
2022-08-30T18:26:24.849Z,3.20
2022-08-30T18:28:53.321Z,3.80
2022-08-30T18:31:21.504Z,4.10
2022-08-30T18:33:50.913Z,4.00
2022-08-30T18:36:19.187Z,4.07
2022-08-30T18:38:47.202Z,4.07
2022-08-30T18:41:15.601Z,4.10
2022-08-30T18:43:44.821Z,3.67
2022-08-30T18:46:14.844Z,3.87
2022-08-30T18:48:43.271Z,3.30
2022-08-30T18:51:14.264Z,2.97
2022-08-30T18:53:42.818Z,3.57
2022-08-30T18:56:12.631Z,2.93
2022-08-30T18:58:44.520Z,2.73
2022-08-30T19:01:13.053Z,2.97
2022-08-30T19:03:43.677Z,3.37
2022-08-30T19:06:13.983Z,2.90
2022-08-30T19:08:45.746Z,3.00
2022-08-30T19:11:14.121Z,2.43
2022-08-30T19:13:42.062Z,2.60
2022-08-30T19:16:12.049Z,3.00
2022-08-30T19:18:41.624Z,2.97
2022-08-30T19:21:13.578Z,3.00
2022-08-30T19:23:43.455Z,2.90
2022-08-30T19:26:11.343Z,3.30
2022-08-30T19:28:39.395Z,3.30
2022-08-30T19:31:07.709Z,2.83
2022-08-30T19:33:36.076Z,2.90
2022-08-30T19:36:06.785Z,2.93
2022-08-30T19:38:35.644Z,3.50
2022-08-30T19:41:05.498Z,3.47
2022-08-30T19:43:33.455Z,3.20
2022-08-30T19:46:01.770Z,3.20
2022-08-30T19:48:32.716Z,3.23
2022-08-30T19:51:06.584Z,3.47
2022-08-30T19:53:35.149Z,3.13
2022-08-30T19:56:05.352Z,3.00
2022-08-30T19:58:33.228Z,3.20
2022-08-30T20:01:10.997Z,3.50
2022-08-30T20:03:41.482Z,2.40
2022-08-30T20:06:09.764Z,2.87
2022-08-30T20:08:38.184Z,3.10
2022-08-30T20:11:07.558Z,3.20
2022-08-30T20:13:36.940Z,2.70
2022-08-30T20:16:06.014Z,2.93
2022-08-30T20:18:33.970Z,2.87
2022-08-30T20:21:01.862Z,3.07
2022-08-30T20:23:30.521Z,3.00
2022-08-30T20:26:05.463Z,3.43
2022-08-30T20:28:34.711Z,3.17
2022-08-30T20:31:05.707Z,3.40
2022-08-30T20:33:36.391Z,2.67
2022-08-30T20:36:05.321Z,2.90
2022-08-30T20:38:33.243Z,2.60
2022-08-30T20:41:02.661Z,2.90
2022-08-30T20:43:31.550Z,3.53
2022-08-30T20:46:00.802Z,4.03
2022-08-30T20:48:28.830Z,4.70
2022-08-30T20:50:56.813Z,4.70
2022-08-30T20:53:25.079Z,4.23
2022-08-30T20:55:52.937Z,4.37
2022-08-30T20:58:20.829Z,4.53
2022-08-30T21:00:51.354Z,3.43
2022-08-30T21:03:27.681Z,3.93
2022-08-30T21:05:56.388Z,4.00
2022-08-30T21:08:24.964Z,3.70
2022-08-30T21:10:53.447Z,2.97
2022-08-30T21:13:21.850Z,2.70
2022-08-30T21:15:52.485Z,3.23
2022-08-30T21:18:22.094Z,3.00
2022-08-30T21:20:50.236Z,3.27
2022-08-30T21:23:18.149Z,3.37
2022-08-30T21:25:46.072Z,3.40
2022-08-30T21:28:13.970Z,2.87
2022-08-30T21:30:45.121Z,2.73
2022-08-30T21:33:12.947Z,3.10
2022-08-30T21:35:59.860Z,3.70
2022-08-30T21:38:27.683Z,3.10
2022-08-30T21:40:55.542Z,2.70
2022-08-30T21:43:23.458Z,3.20
2022-08-30T21:45:53.513Z,2.77
2022-08-30T21:48:21.511Z,2.63
2022-08-30T21:50:50.778Z,2.87
2022-08-30T21:53:19.248Z,3.30
2022-08-30T21:55:47.993Z,2.90
2022-08-30T21:58:16.252Z,3.03
2022-08-30T22:00:44.162Z,2.77
2022-08-30T22:03:12.429Z,2.90
2022-08-30T22:05:40.805Z,3.00
2022-08-30T22:08:10.097Z,3.00
2022-08-30T22:10:37.996Z,2.60
2022-08-30T22:13:10.015Z,2.80
2022-08-30T22:15:38.576Z,2.90
2022-08-30T22:18:07.395Z,3.00
2022-08-30T22:20:35.737Z,3.10
2022-08-30T22:23:04.143Z,2.67
2022-08-30T22:25:33.650Z,3.13
2022-08-30T22:28:01.536Z,2.90
2022-08-30T22:30:32.489Z,3.03
2022-08-30T22:33:00.370Z,2.50
2022-08-30T22:35:28.660Z,3.00
2022-08-30T22:37:56.542Z,2.90
2022-08-30T22:40:24.449Z,2.80
2022-08-30T22:42:53.800Z,2.63
2022-08-30T22:45:21.835Z,2.70
2022-08-30T22:47:49.862Z,3.30
2022-08-30T22:50:17.900Z,2.73
2022-08-30T22:52:45.909Z,2.43
2022-08-30T22:55:13.862Z,2.63
2022-08-30T22:57:42.493Z,3.00
2022-08-30T23:00:16.064Z,2.60
2022-08-30T23:02:44.156Z,3.43
2022-08-30T23:05:13.116Z,2.80
2022-08-30T23:07:41.513Z,2.60
2022-08-30T23:10:11.404Z,2.90
2022-08-30T23:12:39.459Z,2.90
2022-08-30T23:15:10.235Z,3.37
2022-08-30T23:17:39.981Z,3.47
2022-08-30T23:20:09.580Z,2.90
2022-08-30T23:22:40.238Z,3.33
2022-08-30T23:25:26.512Z,2.80
2022-08-30T23:28:20.819Z,2.83
2022-08-30T23:31:06.819Z,3.07
2022-08-30T23:33:53.670Z,2.97
2022-08-30T23:36:38.930Z,3.23
2022-08-30T23:39:24.174Z,3.40
2022-08-30T23:42:09.362Z,2.93
2022-08-30T23:44:54.677Z,3.30
2022-08-30T23:47:39.977Z,2.87
2022-08-30T23:50:27.292Z,2.97
2022-08-30T23:53:12.655Z,3.00
2022-08-30T23:55:58.953Z,2.83
2022-08-30T23:58:44.282Z,3.03
